sensor_id;sensor_type;location;lat;lon;timestamp;P1;durP1;ratioP1;P2;durP2;ratioP2
64641;SDS011;59936;51.490;5.436;2023-06-10T00:00:02;8.20;;;7.40;;
64641;SDS011;59936;51.490;5.436;2023-06-10T00:04:54;12.00;;;7.30;;
64641;SDS011;59936;51.490;5.436;2023-06-10T00:07:24;8.60;;;7.70;;
64641;SDS011;59936;51.490;5.436;2023-06-10T00:09:52;11.50;;;7.90;;
64641;SDS011;59936;51.490;5.436;2023-06-10T00:12:21;9.50;;;8.20;;
64641;SDS011;59936;51.490;5.436;2023-06-10T00:14:49;9.10;;;7.50;;
64641;SDS011;59936;51.490;5.436;2023-06-10T00:17:18;11.10;;;7.30;;
64641;SDS011;59936;51.490;5.436;2023-06-10T00:19:46;8.80;;;7.70;;
64641;SDS011;59936;51.490;5.436;2023-06-10T00:22:15;7.80;;;7.00;;
64641;SDS011;59936;51.490;5.436;2023-06-10T00:24:44;11.90;;;7.50;;
64641;SDS011;59936;51.490;5.436;2023-06-10T00:27:12;9.10;;;7.50;;
64641;SDS011;59936;51.490;5.436;2023-06-10T00:29:41;9.60;;;7.50;;
64641;SDS011;59936;51.490;5.436;2023-06-10T00:32:09;10.60;;;8.00;;
64641;SDS011;59936;51.490;5.436;2023-06-10T00:34:38;9.90;;;8.50;;
64641;SDS011;59936;51.490;5.436;2023-06-10T00:37:06;10.90;;;8.00;;
64641;SDS011;59936;51.490;5.436;2023-06-10T00:39:35;8.60;;;7.60;;
64641;SDS011;59936;51.490;5.436;2023-06-10T00:42:04;8.70;;;7.80;;
64641;SDS011;59936;51.490;5.436;2023-06-10T00:44:33;8.60;;;7.70;;
64641;SDS011;59936;51.490;5.436;2023-06-10T00:47:01;11.10;;;8.70;;
64641;SDS011;59936;51.490;5.436;2023-06-10T00:49:30;9.60;;;8.60;;
64641;SDS011;59936;51.490;5.436;2023-06-10T00:51:59;8.60;;;7.80;;
64641;SDS011;59936;51.490;5.436;2023-06-10T00:54:27;8.80;;;7.90;;
64641;SDS011;59936;51.490;5.436;2023-06-10T00:56:56;10.30;;;8.00;;
64641;SDS011;59936;51.490;5.436;2023-06-10T00:59:28;9.70;;;8.70;;
64641;SDS011;59936;51.490;5.436;2023-06-10T01:01:58;11.30;;;8.30;;
64641;SDS011;59936;51.490;5.436;2023-06-10T01:04:27;10.70;;;7.90;;
64641;SDS011;59936;51.490;5.436;2023-06-10T01:09:38;9.90;;;7.80;;
64641;SDS011;59936;51.490;5.436;2023-06-10T01:13:05;9.30;;;8.00;;
64641;SDS011;59936;51.490;5.436;2023-06-10T01:15:25;10.10;;;8.20;;
64641;SDS011;59936;51.490;5.436;2023-06-10T01:17:55;9.60;;;8.70;;
64641;SDS011;59936;51.490;5.436;2023-06-10T01:20:30;10.90;;;8.60;;
64641;SDS011;59936;51.490;5.436;2023-06-10T01:23:00;9.20;;;8.40;;
64641;SDS011;59936;51.490;5.436;2023-06-10T01:25:29;9.40;;;8.50;;
64641;SDS011;59936;51.490;5.436;2023-06-10T01:28:02;9.20;;;8.20;;
64641;SDS011;59936;51.490;5.436;2023-06-10T01:31:25;8.60;;;7.80;;
64641;SDS011;59936;51.490;5.436;2023-06-10T01:33:33;13.80;;;8.90;;
64641;SDS011;59936;51.490;5.436;2023-06-10T01:36:06;9.70;;;8.70;;
64641;SDS011;59936;51.490;5.436;2023-06-10T01:38:38;9.30;;;8.30;;
64641;SDS011;59936;51.490;5.436;2023-06-10T01:41:12;15.50;;;9.30;;
64641;SDS011;59936;51.490;5.436;2023-06-10T01:43:44;10.00;;;9.00;;
64641;SDS011;59936;51.490;5.436;2023-06-10T01:46:14;10.30;;;9.20;;
64641;SDS011;59936;51.490;5.436;2023-06-10T01:48:43;10.10;;;9.20;;
64641;SDS011;59936;51.490;5.436;2023-06-10T01:51:12;9.70;;;8.70;;
64641;SDS011;59936;51.490;5.436;2023-06-10T01:53:41;10.30;;;9.30;;
64641;SDS011;59936;51.490;5.436;2023-06-10T01:56:09;10.70;;;8.90;;
64641;SDS011;59936;51.490;5.436;2023-06-10T01:58:38;11.90;;;9.00;;
64641;SDS011;59936;51.490;5.436;2023-06-10T02:01:06;10.30;;;9.30;;
64641;SDS011;59936;51.490;5.436;2023-06-10T02:03:35;10.50;;;9.40;;
64641;SDS011;59936;51.490;5.436;2023-06-10T02:06:03;9.90;;;9.00;;
64641;SDS011;59936;51.490;5.436;2023-06-10T02:08:32;10.30;;;9.30;;
64641;SDS011;59936;51.490;5.436;2023-06-10T02:11:00;9.90;;;8.90;;
64641;SDS011;59936;51.490;5.436;2023-06-10T02:13:29;10.40;;;9.40;;
64641;SDS011;59936;51.490;5.436;2023-06-10T02:15:58;15.20;;;10.10;;
64641;SDS011;59936;51.490;5.436;2023-06-10T02:18:27;9.80;;;9.00;;
64641;SDS011;59936;51.490;5.436;2023-06-10T02:20:56;14.20;;;8.80;;
64641;SDS011;59936;51.490;5.436;2023-06-10T02:23:24;9.80;;;8.80;;
64641;SDS011;59936;51.490;5.436;2023-06-10T02:25:53;10.10;;;9.20;;
64641;SDS011;59936;51.490;5.436;2023-06-10T02:28:21;11.30;;;9.20;;
64641;SDS011;59936;51.490;5.436;2023-06-10T02:30:51;11.50;;;9.80;;
64641;SDS011;59936;51.490;5.436;2023-06-10T02:33:19;10.10;;;9.10;;
64641;SDS011;59936;51.490;5.436;2023-06-10T02:35:48;11.10;;;10.00;;
64641;SDS011;59936;51.490;5.436;2023-06-10T02:38:17;10.00;;;8.80;;
64641;SDS011;59936;51.490;5.436;2023-06-10T02:40:45;10.90;;;9.70;;
64641;SDS011;59936;51.490;5.436;2023-06-10T02:43:14;12.20;;;9.50;;
64641;SDS011;59936;51.490;5.436;2023-06-10T02:45:42;10.70;;;9.60;;
64641;SDS011;59936;51.490;5.436;2023-06-10T02:48:11;18.70;;;10.10;;
64641;SDS011;59936;51.490;5.436;2023-06-10T02:50:39;10.90;;;9.70;;
64641;SDS011;59936;51.490;5.436;2023-06-10T02:53:08;10.80;;;9.70;;
64641;SDS011;59936;51.490;5.436;2023-06-10T02:55:37;11.40;;;10.00;;
64641;SDS011;59936;51.490;5.436;2023-06-10T02:58:05;11.60;;;10.20;;
64641;SDS011;59936;51.490;5.436;2023-06-10T03:00:34;10.80;;;9.80;;
64641;SDS011;59936;51.490;5.436;2023-06-10T03:03:03;11.70;;;9.10;;
64641;SDS011;59936;51.490;5.436;2023-06-10T03:05:32;11.40;;;10.20;;
64641;SDS011;59936;51.490;5.436;2023-06-10T03:08:01;11.80;;;10.60;;
64641;SDS011;59936;51.490;5.436;2023-06-10T03:10:29;11.40;;;10.30;;
64641;SDS011;59936;51.490;5.436;2023-06-10T03:12:58;12.60;;;10.80;;
64641;SDS011;59936;51.490;5.436;2023-06-10T03:15:27;12.30;;;10.70;;
64641;SDS011;59936;51.490;5.436;2023-06-10T03:17:55;13.20;;;11.00;;
64641;SDS011;59936;51.490;5.436;2023-06-10T03:20:24;11.50;;;10.40;;
64641;SDS011;59936;51.490;5.436;2023-06-10T03:22:52;12.30;;;11.10;;
64641;SDS011;59936;51.490;5.436;2023-06-10T03:25:21;13.00;;;10.60;;
64641;SDS011;59936;51.490;5.436;2023-06-10T03:27:50;11.90;;;10.40;;
64641;SDS011;59936;51.490;5.436;2023-06-10T03:30:18;12.00;;;10.80;;
64641;SDS011;59936;51.490;5.436;2023-06-10T03:32:47;16.20;;;12.00;;
64641;SDS011;59936;51.490;5.436;2023-06-10T03:35:20;14.60;;;10.90;;
64641;SDS011;59936;51.490;5.436;2023-06-10T03:37:49;17.50;;;11.60;;
64641;SDS011;59936;51.490;5.436;2023-06-10T03:40:17;12.70;;;11.50;;
64641;SDS011;59936;51.490;5.436;2023-06-10T03:42:46;12.50;;;11.20;;
64641;SDS011;59936;51.490;5.436;2023-06-10T03:45:14;12.60;;;11.30;;
64641;SDS011;59936;51.490;5.436;2023-06-10T03:47:43;12.50;;;11.20;;
64641;SDS011;59936;51.490;5.436;2023-06-10T03:50:12;13.70;;;12.10;;
64641;SDS011;59936;51.490;5.436;2023-06-10T03:52:40;12.80;;;11.40;;
64641;SDS011;59936;51.490;5.436;2023-06-10T03:55:09;13.60;;;12.20;;
64641;SDS011;59936;51.490;5.436;2023-06-10T03:57:37;12.80;;;11.60;;
64641;SDS011;59936;51.490;5.436;2023-06-10T04:00:06;12.20;;;11.10;;
64641;SDS011;59936;51.490;5.436;2023-06-10T04:02:35;12.30;;;11.20;;
64641;SDS011;59936;51.490;5.436;2023-06-10T04:05:04;13.90;;;12.40;;
64641;SDS011;59936;51.490;5.436;2023-06-10T04:07:33;13.00;;;11.70;;
64641;SDS011;59936;51.490;5.436;2023-06-10T04:10:01;13.10;;;11.80;;
64641;SDS011;59936;51.490;5.436;2023-06-10T04:12:30;12.90;;;11.50;;
64641;SDS011;59936;51.490;5.436;2023-06-10T04:14:58;13.70;;;12.10;;
64641;SDS011;59936;51.490;5.436;2023-06-10T04:17:27;13.70;;;12.10;;
64641;SDS011;59936;51.490;5.436;2023-06-10T04:19:56;13.90;;;12.50;;
64641;SDS011;59936;51.490;5.436;2023-06-10T04:22:25;13.80;;;11.50;;
64641;SDS011;59936;51.490;5.436;2023-06-10T04:24:54;14.80;;;12.80;;
64641;SDS011;59936;51.490;5.436;2023-06-10T04:27:22;13.50;;;12.20;;
64641;SDS011;59936;51.490;5.436;2023-06-10T04:29:52;12.80;;;11.50;;
64641;SDS011;59936;51.490;5.436;2023-06-10T04:32:20;15.10;;;12.50;;
64641;SDS011;59936;51.490;5.436;2023-06-10T04:34:49;14.80;;;12.40;;
64641;SDS011;59936;51.490;5.436;2023-06-10T04:37:17;13.60;;;12.20;;
64641;SDS011;59936;51.490;5.436;2023-06-10T04:39:46;14.00;;;12.50;;
64641;SDS011;59936;51.490;5.436;2023-06-10T04:42:15;13.70;;;11.50;;
64641;SDS011;59936;51.490;5.436;2023-06-10T04:44:43;13.80;;;12.40;;
64641;SDS011;59936;51.490;5.436;2023-06-10T04:47:12;15.50;;;13.00;;
64641;SDS011;59936;51.490;5.436;2023-06-10T04:49:40;13.80;;;12.40;;
64641;SDS011;59936;51.490;5.436;2023-06-10T04:52:09;12.90;;;11.60;;
64641;SDS011;59936;51.490;5.436;2023-06-10T04:54:37;17.00;;;12.50;;
64641;SDS011;59936;51.490;5.436;2023-06-10T04:57:06;14.50;;;13.00;;
64641;SDS011;59936;51.490;5.436;2023-06-10T04:59:35;14.90;;;12.10;;
64641;SDS011;59936;51.490;5.436;2023-06-10T05:02:04;14.00;;;12.70;;
64641;SDS011;59936;51.490;5.436;2023-06-10T05:04:33;13.90;;;12.40;;
64641;SDS011;59936;51.490;5.436;2023-06-10T05:07:01;13.60;;;12.20;;
64641;SDS011;59936;51.490;5.436;2023-06-10T05:09:30;13.60;;;12.30;;
64641;SDS011;59936;51.490;5.436;2023-06-10T05:11:58;14.60;;;12.50;;
64641;SDS011;59936;51.490;5.436;2023-06-10T05:14:27;13.45;;;11.55;;
64641;SDS011;59936;51.490;5.436;2023-06-10T05:16:56;15.60;;;12.90;;
64641;SDS011;59936;51.490;5.436;2023-06-10T05:19:24;12.90;;;11.70;;
64641;SDS011;59936;51.490;5.436;2023-06-10T05:21:53;15.70;;;12.00;;
64641;SDS011;59936;51.490;5.436;2023-06-10T05:24:21;15.20;;;12.50;;
64641;SDS011;59936;51.490;5.436;2023-06-10T05:26:50;12.70;;;11.40;;
64641;SDS011;59936;51.490;5.436;2023-06-10T05:29:23;14.70;;;12.60;;
64641;SDS011;59936;51.490;5.436;2023-06-10T05:31:52;12.80;;;11.50;;
64641;SDS011;59936;51.490;5.436;2023-06-10T05:34:20;14.20;;;11.60;;
64641;SDS011;59936;51.490;5.436;2023-06-10T05:36:49;13.40;;;12.10;;
64641;SDS011;59936;51.490;5.436;2023-06-10T05:39:17;12.50;;;10.50;;
64641;SDS011;59936;51.490;5.436;2023-06-10T05:41:46;16.30;;;11.85;;
64641;SDS011;59936;51.490;5.436;2023-06-10T05:44:15;12.00;;;10.80;;
64641;SDS011;59936;51.490;5.436;2023-06-10T05:46:43;13.10;;;11.80;;
64641;SDS011;59936;51.490;5.436;2023-06-10T05:49:12;12.50;;;10.50;;
64641;SDS011;59936;51.490;5.436;2023-06-10T05:51:40;13.40;;;12.00;;
64641;SDS011;59936;51.490;5.436;2023-06-10T05:54:09;16.20;;;12.40;;
64641;SDS011;59936;51.490;5.436;2023-06-10T05:56:37;16.50;;;12.50;;
64641;SDS011;59936;51.490;5.436;2023-06-10T05:59:06;14.00;;;11.20;;
64641;SDS011;59936;51.490;5.436;2023-06-10T06:01:35;13.50;;;12.10;;
64641;SDS011;59936;51.490;5.436;2023-06-10T06:04:03;15.10;;;10.90;;
64641;SDS011;59936;51.490;5.436;2023-06-10T06:06:32;13.00;;;11.70;;
64641;SDS011;59936;51.490;5.436;2023-06-10T06:09:00;14.30;;;11.20;;
64641;SDS011;59936;51.490;5.436;2023-06-10T06:11:29;15.85;;;11.95;;
64641;SDS011;59936;51.490;5.436;2023-06-10T06:13:57;17.30;;;11.40;;
64641;SDS011;59936;51.490;5.436;2023-06-10T06:16:26;12.20;;;10.70;;
64641;SDS011;59936;51.490;5.436;2023-06-10T06:18:55;12.70;;;10.90;;
64641;SDS011;59936;51.490;5.436;2023-06-10T06:21:23;11.90;;;10.50;;
64641;SDS011;59936;51.490;5.436;2023-06-10T06:23:52;12.30;;;11.10;;
64641;SDS011;59936;51.490;5.436;2023-06-10T06:26:20;13.00;;;11.10;;
64641;SDS011;59936;51.490;5.436;2023-06-10T06:28:49;16.30;;;10.90;;
64641;SDS011;59936;51.490;5.436;2023-06-10T06:31:17;11.70;;;10.30;;
64641;SDS011;59936;51.490;5.436;2023-06-10T06:33:46;15.00;;;10.40;;
64641;SDS011;59936;51.490;5.436;2023-06-10T06:36:15;14.10;;;10.00;;
64641;SDS011;59936;51.490;5.436;2023-06-10T06:38:43;16.10;;;10.00;;
64641;SDS011;59936;51.490;5.436;2023-06-10T06:41:12;15.40;;;10.80;;
64641;SDS011;59936;51.490;5.436;2023-06-10T06:43:40;12.50;;;10.10;;
64641;SDS011;59936;51.490;5.436;2023-06-10T06:46:09;13.10;;;10.00;;
64641;SDS011;59936;51.490;5.436;2023-06-10T06:48:37;13.30;;;9.70;;
64641;SDS011;59936;51.490;5.436;2023-06-10T06:51:09;11.10;;;9.50;;
64641;SDS011;59936;51.490;5.436;2023-06-10T06:53:41;11.10;;;10.10;;
64641;SDS011;59936;51.490;5.436;2023-06-10T06:56:10;13.40;;;10.00;;
64641;SDS011;59936;51.490;5.436;2023-06-10T06:58:40;12.70;;;9.30;;
64641;SDS011;59936;51.490;5.436;2023-06-10T07:01:09;13.60;;;9.50;;
64641;SDS011;59936;51.490;5.436;2023-06-10T07:03:38;10.90;;;9.50;;
64641;SDS011;59936;51.490;5.436;2023-06-10T07:06:06;13.50;;;9.25;;
64641;SDS011;59936;51.490;5.436;2023-06-10T07:08:40;14.90;;;9.50;;
64641;SDS011;59936;51.490;5.436;2023-06-10T07:11:09;13.70;;;9.55;;
64641;SDS011;59936;51.490;5.436;2023-06-10T07:13:37;12.30;;;9.60;;
64641;SDS011;59936;51.490;5.436;2023-06-10T07:16:06;11.90;;;8.50;;
64641;SDS011;59936;51.490;5.436;2023-06-10T07:18:34;10.40;;;9.30;;
64641;SDS011;59936;51.490;5.436;2023-06-10T07:21:03;10.90;;;8.90;;
64641;SDS011;59936;51.490;5.436;2023-06-10T07:23:32;10.80;;;8.30;;
64641;SDS011;59936;51.490;5.436;2023-06-10T07:26:00;10.30;;;8.40;;
64641;SDS011;59936;51.490;5.436;2023-06-10T07:28:29;9.70;;;8.70;;
64641;SDS011;59936;51.490;5.436;2023-06-10T07:30:57;13.80;;;9.60;;
64641;SDS011;59936;51.490;5.436;2023-06-10T07:33:26;11.70;;;8.70;;
64641;SDS011;59936;51.490;5.436;2023-06-10T07:35:54;10.80;;;8.40;;
64641;SDS011;59936;51.490;5.436;2023-06-10T07:38:24;9.20;;;8.20;;
64641;SDS011;59936;51.490;5.436;2023-06-10T07:40:55;10.90;;;8.40;;
64641;SDS011;59936;51.490;5.436;2023-06-10T07:43:24;9.70;;;8.10;;
64641;SDS011;59936;51.490;5.436;2023-06-10T07:45:52;11.60;;;8.30;;
64641;SDS011;59936;51.490;5.436;2023-06-10T07:48:21;10.80;;;7.80;;
64641;SDS011;59936;51.490;5.436;2023-06-10T07:50:50;16.30;;;8.70;;
64641;SDS011;59936;51.490;5.436;2023-06-10T07:53:20;10.60;;;8.50;;
64641;SDS011;59936;51.490;5.436;2023-06-10T07:55:48;10.00;;;7.60;;
64641;SDS011;59936;51.490;5.436;2023-06-10T07:58:17;9.00;;;7.80;;
64641;SDS011;59936;51.490;5.436;2023-06-10T08:00:49;9.90;;;8.30;;
64641;SDS011;59936;51.490;5.436;2023-06-10T08:03:17;12.85;;;7.40;;
64641;SDS011;59936;51.490;5.436;2023-06-10T08:05:46;9.10;;;7.20;;
64641;SDS011;59936;51.490;5.436;2023-06-10T08:08:15;9.30;;;7.30;;
64641;SDS011;59936;51.490;5.436;2023-06-10T08:10:44;8.40;;;7.60;;
64641;SDS011;59936;51.490;5.436;2023-06-10T08:13:12;9.40;;;7.20;;
64641;SDS011;59936;51.490;5.436;2023-06-10T08:15:41;12.40;;;7.50;;
64641;SDS011;59936;51.490;5.436;2023-06-10T08:18:09;9.70;;;7.45;;
64641;SDS011;59936;51.490;5.436;2023-06-10T08:20:38;9.85;;;7.20;;
64641;SDS011;59936;51.490;5.436;2023-06-10T08:23:07;10.30;;;7.00;;
64641;SDS011;59936;51.490;5.436;2023-06-10T08:25:35;7.10;;;6.50;;
64641;SDS011;59936;51.490;5.436;2023-06-10T08:28:04;8.50;;;7.30;;
64641;SDS011;59936;51.490;5.436;2023-06-10T08:30:32;10.40;;;7.10;;
64641;SDS011;59936;51.490;5.436;2023-06-10T08:33:01;10.60;;;7.20;;
64641;SDS011;59936;51.490;5.436;2023-06-10T08:35:29;8.50;;;6.50;;
64641;SDS011;59936;51.490;5.436;2023-06-10T08:37:58;7.30;;;6.20;;
64641;SDS011;59936;51.490;5.436;2023-06-10T08:40:27;11.40;;;6.90;;
64641;SDS011;59936;51.490;5.436;2023-06-10T08:45:55;8.60;;;7.00;;
64641;SDS011;59936;51.490;5.436;2023-06-10T08:53:27;10.30;;;6.40;;
64641;SDS011;59936;51.490;5.436;2023-06-10T08:56:02;10.50;;;6.40;;
64641;SDS011;59936;51.490;5.436;2023-06-10T08:58:33;8.70;;;5.80;;
64641;SDS011;59936;51.490;5.436;2023-06-10T09:01:02;7.45;;;6.75;;
64641;SDS011;59936;51.490;5.436;2023-06-10T09:03:31;9.60;;;6.80;;
64641;SDS011;59936;51.490;5.436;2023-06-10T09:06:01;7.70;;;6.90;;
64641;SDS011;59936;51.490;5.436;2023-06-10T09:08:33;8.90;;;6.90;;
64641;SDS011;59936;51.490;5.436;2023-06-10T09:11:02;6.90;;;6.20;;
64641;SDS011;59936;51.490;5.436;2023-06-10T09:13:30;6.90;;;6.20;;
64641;SDS011;59936;51.490;5.436;2023-06-10T09:15:59;7.50;;;6.50;;
64641;SDS011;59936;51.490;5.436;2023-06-10T09:18:28;6.90;;;6.30;;
64641;SDS011;59936;51.490;5.436;2023-06-10T09:20:58;9.40;;;6.90;;
64641;SDS011;59936;51.490;5.436;2023-06-10T09:23:26;14.55;;;6.65;;
64641;SDS011;59936;51.490;5.436;2023-06-10T09:25:55;11.70;;;5.80;;
64641;SDS011;59936;51.490;5.436;2023-06-10T09:28:25;8.80;;;6.50;;
64641;SDS011;59936;51.490;5.436;2023-06-10T09:31:04;7.00;;;6.30;;
64641;SDS011;59936;51.490;5.436;2023-06-10T09:33:36;7.70;;;6.25;;
64641;SDS011;59936;51.490;5.436;2023-06-10T09:36:06;7.85;;;6.05;;
64641;SDS011;59936;51.490;5.436;2023-06-10T09:38:35;6.60;;;5.90;;
64641;SDS011;59936;51.490;5.436;2023-06-10T09:41:04;6.70;;;6.10;;
64641;SDS011;59936;51.490;5.436;2023-06-10T09:44:05;9.60;;;6.10;;
64641;SDS011;59936;51.490;5.436;2023-06-10T09:46:31;7.20;;;6.20;;
64641;SDS011;59936;51.490;5.436;2023-06-10T09:49:05;7.28;;;6.54;;
64641;SDS011;59936;51.490;5.436;2023-06-10T09:51:34;6.70;;;5.90;;
64641;SDS011;59936;51.490;5.436;2023-06-10T09:54:03;6.80;;;5.60;;
64641;SDS011;59936;51.490;5.436;2023-06-10T09:56:32;7.30;;;6.00;;
64641;SDS011;59936;51.490;5.436;2023-06-10T09:59:05;7.60;;;6.00;;
64641;SDS011;59936;51.490;5.436;2023-06-10T10:01:33;6.80;;;6.20;;
64641;SDS011;59936;51.490;5.436;2023-06-10T10:04:02;7.00;;;6.00;;
64641;SDS011;59936;51.490;5.436;2023-06-10T10:06:31;9.40;;;6.40;;
64641;SDS011;59936;51.490;5.436;2023-06-10T10:09:02;7.40;;;6.40;;
64641;SDS011;59936;51.490;5.436;2023-06-10T10:11:30;7.50;;;5.90;;
64641;SDS011;59936;51.490;5.436;2023-06-10T10:14:02;8.30;;;6.40;;
64641;SDS011;59936;51.490;5.436;2023-06-10T10:16:35;9.00;;;6.20;;
64641;SDS011;59936;51.490;5.436;2023-06-10T10:19:28;17.15;;;6.00;;
64641;SDS011;59936;51.490;5.436;2023-06-10T10:22:11;8.70;;;6.00;;
64641;SDS011;59936;51.490;5.436;2023-06-10T10:24:51;7.10;;;5.40;;
64641;SDS011;59936;51.490;5.436;2023-06-10T10:27:28;7.40;;;5.70;;
64641;SDS011;59936;51.490;5.436;2023-06-10T10:30:12;8.30;;;5.70;;
64641;SDS011;59936;51.490;5.436;2023-06-10T10:35:25;9.20;;;5.60;;
64641;SDS011;59936;51.490;5.436;2023-06-10T10:37:54;6.60;;;5.90;;
64641;SDS011;59936;51.490;5.436;2023-06-10T10:40:23;6.50;;;5.50;;
64641;SDS011;59936;51.490;5.436;2023-06-10T10:42:56;7.10;;;6.40;;
64641;SDS011;59936;51.490;5.436;2023-06-10T10:45:27;8.20;;;6.30;;
64641;SDS011;59936;51.490;5.436;2023-06-10T10:47:57;6.40;;;5.80;;
64641;SDS011;59936;51.490;5.436;2023-06-10T10:50:25;7.60;;;6.10;;
64641;SDS011;59936;51.490;5.436;2023-06-10T10:53:01;7.30;;;5.70;;
64641;SDS011;59936;51.490;5.436;2023-06-10T10:55:31;7.60;;;5.50;;
64641;SDS011;59936;51.490;5.436;2023-06-10T10:58:05;6.50;;;5.50;;
64641;SDS011;59936;51.490;5.436;2023-06-10T11:00:36;6.20;;;5.60;;
64641;SDS011;59936;51.490;5.436;2023-06-10T11:03:15;6.70;;;5.80;;
64641;SDS011;59936;51.490;5.436;2023-06-10T11:08:15;6.10;;;5.50;;
64641;SDS011;59936;51.490;5.436;2023-06-10T11:10:57;6.60;;;5.90;;
64641;SDS011;59936;51.490;5.436;2023-06-10T11:13:26;11.00;;;6.10;;
64641;SDS011;59936;51.490;5.436;2023-06-10T11:15:58;6.60;;;5.90;;
64641;SDS011;59936;51.490;5.436;2023-06-10T11:18:28;8.00;;;5.90;;
64641;SDS011;59936;51.490;5.436;2023-06-10T11:21:07;10.10;;;5.90;;
64641;SDS011;59936;51.490;5.436;2023-06-10T11:23:39;6.00;;;5.40;;
64641;SDS011;59936;51.490;5.436;2023-06-10T11:26:13;8.50;;;5.80;;
64641;SDS011;59936;51.490;5.436;2023-06-10T11:31:19;12.60;;;5.60;;
64641;SDS011;59936;51.490;5.436;2023-06-10T11:33:56;7.10;;;5.70;;
64641;SDS011;59936;51.490;5.436;2023-06-10T11:36:30;10.10;;;5.90;;
64641;SDS011;59936;51.490;5.436;2023-06-10T11:39:02;5.90;;;5.30;;
64641;SDS011;59936;51.490;5.436;2023-06-10T11:41:33;8.60;;;5.60;;
64641;SDS011;59936;51.490;5.436;2023-06-10T11:44:04;6.50;;;5.70;;
64641;SDS011;59936;51.490;5.436;2023-06-10T11:46:40;6.50;;;5.90;;
64641;SDS011;59936;51.490;5.436;2023-06-10T11:49:11;6.90;;;5.60;;
64641;SDS011;59936;51.490;5.436;2023-06-10T11:54:09;7.45;;;5.65;;
64641;SDS011;59936;51.490;5.436;2023-06-10T11:56:37;5.70;;;5.20;;
64641;SDS011;59936;51.490;5.436;2023-06-10T11:59:06;8.90;;;5.50;;
64641;SDS011;59936;51.490;5.436;2023-06-10T12:01:36;6.40;;;5.90;;
64641;SDS011;59936;51.490;5.436;2023-06-10T12:06:41;6.50;;;5.70;;
64641;SDS011;59936;51.490;5.436;2023-06-10T12:09:27;8.30;;;5.30;;
64641;SDS011;59936;51.490;5.436;2023-06-10T12:12:01;6.50;;;5.90;;
64641;SDS011;59936;51.490;5.436;2023-06-10T12:17:20;6.30;;;5.50;;
64641;SDS011;59936;51.490;5.436;2023-06-10T12:19:51;9.20;;;5.90;;
64641;SDS011;59936;51.490;5.436;2023-06-10T12:22:20;6.10;;;5.50;;
64641;SDS011;59936;51.490;5.436;2023-06-10T12:27:29;6.70;;;6.10;;
64641;SDS011;59936;51.490;5.436;2023-06-10T12:29:59;8.20;;;5.80;;
64641;SDS011;59936;51.490;5.436;2023-06-10T12:32:43;5.70;;;5.20;;
64641;SDS011;59936;51.490;5.436;2023-06-10T12:35:16;9.60;;;5.40;;
64641;SDS011;59936;51.490;5.436;2023-06-10T12:37:59;8.00;;;5.80;;
64641;SDS011;59936;51.490;5.436;2023-06-10T12:40:39;6.20;;;5.70;;
64641;SDS011;59936;51.490;5.436;2023-06-10T12:45:37;6.00;;;5.50;;
64641;SDS011;59936;51.490;5.436;2023-06-10T12:48:09;8.65;;;6.10;;
64641;SDS011;59936;51.490;5.436;2023-06-10T12:50:54;8.35;;;5.95;;
64641;SDS011;59936;51.490;5.436;2023-06-10T12:53:25;6.40;;;5.50;;
64641;SDS011;59936;51.490;5.436;2023-06-10T12:55:54;6.20;;;5.60;;
64641;SDS011;59936;51.490;5.436;2023-06-10T12:58:24;8.50;;;5.80;;
64641;SDS011;59936;51.490;5.436;2023-06-10T13:00:52;6.90;;;5.35;;
64641;SDS011;59936;51.490;5.436;2023-06-10T13:03:21;7.10;;;5.60;;
64641;SDS011;59936;51.490;5.436;2023-06-10T13:05:49;7.00;;;5.80;;
64641;SDS011;59936;51.490;5.436;2023-06-10T13:08:18;9.80;;;5.80;;
64641;SDS011;59936;51.490;5.436;2023-06-10T13:10:47;6.00;;;5.50;;
64641;SDS011;59936;51.490;5.436;2023-06-10T13:13:15;8.30;;;6.00;;
64641;SDS011;59936;51.490;5.436;2023-06-10T13:15:44;6.80;;;5.70;;
64641;SDS011;59936;51.490;5.436;2023-06-10T13:18:12;6.70;;;5.70;;
64641;SDS011;59936;51.490;5.436;2023-06-10T13:20:44;5.90;;;5.30;;
64641;SDS011;59936;51.490;5.436;2023-06-10T13:23:13;8.70;;;5.50;;
64641;SDS011;59936;51.490;5.436;2023-06-10T13:25:41;8.10;;;5.70;;
64641;SDS011;59936;51.490;5.436;2023-06-10T13:28:10;8.80;;;5.50;;
64641;SDS011;59936;51.490;5.436;2023-06-10T13:30:38;6.20;;;5.40;;
64641;SDS011;59936;51.490;5.436;2023-06-10T13:33:07;7.40;;;6.10;;
64641;SDS011;59936;51.490;5.436;2023-06-10T13:35:36;7.00;;;5.20;;
64641;SDS011;59936;51.490;5.436;2023-06-10T13:38:04;7.40;;;6.05;;
64641;SDS011;59936;51.490;5.436;2023-06-10T13:40:33;6.30;;;5.70;;
64641;SDS011;59936;51.490;5.436;2023-06-10T13:43:01;9.80;;;5.70;;
64641;SDS011;59936;51.490;5.436;2023-06-10T13:45:34;6.90;;;5.40;;
64641;SDS011;59936;51.490;5.436;2023-06-10T13:48:03;6.00;;;5.40;;
64641;SDS011;59936;51.490;5.436;2023-06-10T13:50:32;6.45;;;5.85;;
64641;SDS011;59936;51.490;5.436;2023-06-10T13:53:01;6.00;;;5.10;;
64641;SDS011;59936;51.490;5.436;2023-06-10T13:55:29;8.40;;;5.80;;
64641;SDS011;59936;51.490;5.436;2023-06-10T13:57:58;7.40;;;5.10;;
64641;SDS011;59936;51.490;5.436;2023-06-10T14:00:27;7.90;;;5.40;;
64641;SDS011;59936;51.490;5.436;2023-06-10T14:02:57;9.40;;;5.65;;
64641;SDS011;59936;51.490;5.436;2023-06-10T14:05:25;7.60;;;5.65;;
64641;SDS011;59936;51.490;5.436;2023-06-10T14:07:54;7.00;;;5.60;;
64641;SDS011;59936;51.490;5.436;2023-06-10T14:10:22;6.00;;;5.40;;
64641;SDS011;59936;51.490;5.436;2023-06-10T14:12:51;7.10;;;5.50;;
64641;SDS011;59936;51.490;5.436;2023-06-10T14:15:19;6.70;;;5.30;;
64641;SDS011;59936;51.490;5.436;2023-06-10T14:17:48;6.20;;;5.30;;
64641;SDS011;59936;51.490;5.436;2023-06-10T14:20:17;10.70;;;5.70;;
64641;SDS011;59936;51.490;5.436;2023-06-10T14:22:45;6.00;;;5.40;;
64641;SDS011;59936;51.490;5.436;2023-06-10T14:25:14;7.90;;;6.10;;
64641;SDS011;59936;51.490;5.436;2023-06-10T14:27:42;6.40;;;5.90;;
64641;SDS011;59936;51.490;5.436;2023-06-10T14:30:11;7.40;;;5.60;;
64641;SDS011;59936;51.490;5.436;2023-06-10T14:32:40;6.70;;;5.70;;
64641;SDS011;59936;51.490;5.436;2023-06-10T14:35:08;11.40;;;5.80;;
64641;SDS011;59936;51.490;5.436;2023-06-10T14:37:37;6.20;;;5.60;;
64641;SDS011;59936;51.490;5.436;2023-06-10T14:40:06;7.50;;;5.70;;
64641;SDS011;59936;51.490;5.436;2023-06-10T14:42:41;5.80;;;5.30;;
64641;SDS011;59936;51.490;5.436;2023-06-10T14:45:11;5.90;;;5.40;;
64641;SDS011;59936;51.490;5.436;2023-06-10T14:47:39;5.90;;;5.30;;
64641;SDS011;59936;51.490;5.436;2023-06-10T14:50:08;6.80;;;5.60;;
64641;SDS011;59936;51.490;5.436;2023-06-10T14:52:37;7.30;;;6.10;;
64641;SDS011;59936;51.490;5.436;2023-06-10T14:55:06;6.20;;;5.60;;
64641;SDS011;59936;51.490;5.436;2023-06-10T14:57:34;7.50;;;5.20;;
64641;SDS011;59936;51.490;5.436;2023-06-10T15:00:03;6.80;;;5.90;;
64641;SDS011;59936;51.490;5.436;2023-06-10T15:02:33;7.05;;;5.65;;
64641;SDS011;59936;51.490;5.436;2023-06-10T15:05:01;7.30;;;6.10;;
64641;SDS011;59936;51.490;5.436;2023-06-10T15:07:30;5.80;;;5.40;;
64641;SDS011;59936;51.490;5.436;2023-06-10T15:09:58;6.30;;;5.80;;
64641;SDS011;59936;51.490;5.436;2023-06-10T15:12:27;8.10;;;6.00;;
64641;SDS011;59936;51.490;5.436;2023-06-10T15:14:56;7.70;;;5.60;;
64641;SDS011;59936;51.490;5.436;2023-06-10T15:17:24;8.20;;;6.10;;
64641;SDS011;59936;51.490;5.436;2023-06-10T15:19:53;9.70;;;6.00;;
64641;SDS011;59936;51.490;5.436;2023-06-10T15:22:27;10.50;;;5.50;;
64641;SDS011;59936;51.490;5.436;2023-06-10T15:24:59;6.55;;;5.65;;
64641;SDS011;59936;51.490;5.436;2023-06-10T15:27:28;6.20;;;5.60;;